createdAt,value
2022-09-26T00:00:02.441Z,26.17
2022-09-26T00:05:04.696Z,25.60
2022-09-26T00:09:57.223Z,25.13
2022-09-26T00:14:51.079Z,23.90
2022-09-26T00:19:43.553Z,25.30
2022-09-26T00:24:36.144Z,24.27
2022-09-26T00:29:28.610Z,23.00
2022-09-26T00:34:22.525Z,23.50
2022-09-26T00:39:16.360Z,22.40
2022-09-26T00:44:27.443Z,21.90
2022-09-26T00:49:26.038Z,21.43
2022-09-26T00:54:20.148Z,21.97
2022-09-26T00:59:15.551Z,22.60
2022-09-26T01:04:08.609Z,24.30
2022-09-26T01:09:01.758Z,25.10
2022-09-26T01:13:56.060Z,23.80
2022-09-26T01:18:50.154Z,23.50
2022-09-26T01:23:56.590Z,22.30
2022-09-26T01:28:58.698Z,22.50
2022-09-26T01:33:58.383Z,22.90
2022-09-26T01:38:57.826Z,25.33
2022-09-26T01:43:51.816Z,23.83
2022-09-26T01:48:45.468Z,24.90
2022-09-26T01:53:43.295Z,25.80
2022-09-26T01:58:37.865Z,24.00
2022-09-26T02:03:32.615Z,24.90
2022-09-26T02:08:27.251Z,21.23
2022-09-26T02:13:26.193Z,19.40
2022-09-26T02:18:21.349Z,19.47
2022-09-26T02:23:13.915Z,18.80
2022-09-26T02:28:06.616Z,19.13
2022-09-26T02:33:00.730Z,18.13
2022-09-26T02:37:53.472Z,16.13
2022-09-26T02:42:51.811Z,16.20
2022-09-26T02:47:55.072Z,21.70
2022-09-26T02:52:52.958Z,27.90
2022-09-26T02:58:04.002Z,30.13
2022-09-26T03:02:58.642Z,27.03
2022-09-26T03:07:54.308Z,27.43
2022-09-26T03:12:46.900Z,29.30
2022-09-26T03:17:42.534Z,23.83
2022-09-26T03:22:35.552Z,26.20
2022-09-26T03:27:32.029Z,33.23
2022-09-26T03:32:24.704Z,35.70
2022-09-26T03:37:17.212Z,38.10
2022-09-26T03:42:10.578Z,23.67
2022-09-26T03:47:05.806Z,17.70
2022-09-26T03:52:04.576Z,32.20
2022-09-26T03:56:57.198Z,24.83
2022-09-26T04:01:50.237Z,37.13
2022-09-26T04:06:44.808Z,31.33
2022-09-26T04:11:37.885Z,23.97
2022-09-26T04:16:32.526Z,21.47
2022-09-26T04:21:34.273Z,13.40
2022-09-26T04:26:28.670Z,10.63
2022-09-26T04:31:21.681Z,10.73
2022-09-26T04:36:19.801Z,10.80
2022-09-26T04:41:13.637Z,30.13
2022-09-26T04:46:09.251Z,31.20
2022-09-26T04:51:05.797Z,28.87
2022-09-26T04:55:58.394Z,21.60
2022-09-26T05:00:51.139Z,23.03
2022-09-26T05:05:55.279Z,16.27
2022-09-26T05:10:53.208Z,11.30
2022-09-26T05:15:45.772Z,10.87
2022-09-26T05:20:38.840Z,10.20
2022-09-26T05:25:54.141Z,9.90
2022-09-26T05:30:48.245Z,9.20
2022-09-26T05:35:41.502Z,16.23
2022-09-26T05:40:53.238Z,28.37
2022-09-26T05:45:50.871Z,20.40
2022-09-26T05:50:50.625Z,16.13
2022-09-26T05:55:44.510Z,17.33
2022-09-26T06:00:47.821Z,19.37
2022-09-26T06:05:41.861Z,23.50
2022-09-26T06:10:39.057Z,25.07
2022-09-26T06:15:33.557Z,22.33
2022-09-26T06:20:26.307Z,16.07
2022-09-26T06:25:18.869Z,15.80
2022-09-26T06:30:12.090Z,14.53
2022-09-26T06:35:08.068Z,14.60
2022-09-26T06:40:11.587Z,13.93
2022-09-26T06:45:05.712Z,13.80
2022-09-26T06:50:18.364Z,12.37
2022-09-26T06:55:17.245Z,10.60
2022-09-26T07:00:10.957Z,11.20
2022-09-26T07:05:24.376Z,10.20
2022-09-26T07:10:19.553Z,8.80
2022-09-26T07:15:21.385Z,8.23
2022-09-26T07:20:15.584Z,7.30
2022-09-26T07:25:33.215Z,7.50
2022-09-26T07:30:28.102Z,6.40
2022-09-26T07:35:28.782Z,6.90
2022-09-26T07:40:22.740Z,7.43
2022-09-26T07:45:27.996Z,8.60
2022-09-26T07:50:21.869Z,11.30
2022-09-26T07:55:29.234Z,7.53
2022-09-26T08:00:54.391Z,5.37
2022-09-26T08:06:14.690Z,5.13
2022-09-26T08:11:15.352Z,4.53
2022-09-26T08:16:25.993Z,4.87
2022-09-26T08:21:22.181Z,3.90
2022-09-26T08:26:18.189Z,5.00
2022-09-26T08:31:16.418Z,4.60
2022-09-26T08:36:11.831Z,4.77
2022-09-26T08:41:39.421Z,4.70
2022-09-26T08:46:59.713Z,4.33
2022-09-26T08:52:22.983Z,4.90
2022-09-26T08:57:19.602Z,4.17
2022-09-26T09:02:13.818Z,4.43
2022-09-26T09:07:19.187Z,4.40
2022-09-26T09:12:15.554Z,4.00
2022-09-26T09:17:15.041Z,3.80
2022-09-26T09:22:21.328Z,3.50
2022-09-26T09:27:54.555Z,4.00
2022-09-26T09:32:52.820Z,4.20
2022-09-26T09:37:56.758Z,4.37
2022-09-26T09:43:14.436Z,4.53
2022-09-26T09:48:10.478Z,4.00
2022-09-26T09:53:10.894Z,4.07
2022-09-26T09:58:16.779Z,4.67
2022-09-26T10:03:15.674Z,4.20
2022-09-26T10:08:12.097Z,4.10
2022-09-26T10:13:25.856Z,3.83
2022-09-26T10:18:53.799Z,3.37
2022-09-26T10:23:47.787Z,4.57
2022-09-26T10:29:02.675Z,3.60
2022-09-26T10:33:57.636Z,3.90
2022-09-26T10:39:10.395Z,3.80
2022-09-26T10:44:07.883Z,3.83
2022-09-26T10:49:29.491Z,4.13
2022-09-26T10:55:03.748Z,4.50
2022-09-26T10:59:59.563Z,4.20
2022-09-26T11:05:12.726Z,4.30
2022-09-26T11:10:24.982Z,3.57
2022-09-26T11:15:29.544Z,4.00
2022-09-26T11:20:32.330Z,3.70
2022-09-26T11:25:26.453Z,3.90
2022-09-26T11:30:21.014Z,4.00
2022-09-26T11:35:29.681Z,4.37
2022-09-26T11:40:31.606Z,4.93
2022-09-26T11:45:33.670Z,3.60
2022-09-26T11:51:14.200Z,4.27
2022-09-26T11:56:18.093Z,4.40
2022-09-26T12:01:16.573Z,3.87
2022-09-26T12:06:18.867Z,3.40
2022-09-26T12:11:19.283Z,3.13
2022-09-26T12:16:16.085Z,2.43
2022-09-26T12:21:12.321Z,1.90
2022-09-26T12:26:14.315Z,1.70
2022-09-26T12:31:13.106Z,2.10
2022-09-26T12:36:11.903Z,2.70
2022-09-26T12:41:23.058Z,2.03
2022-09-26T12:46:25.931Z,2.27
2022-09-26T12:51:23.291Z,2.60
2022-09-26T12:56:22.261Z,2.70
2022-09-26T13:01:31.063Z,2.50
2022-09-26T13:06:38.181Z,2.50
2022-09-26T13:11:38.793Z,2.47
2022-09-26T13:16:36.307Z,2.23
2022-09-26T13:21:40.138Z,2.13
2022-09-26T13:26:37.112Z,1.50
2022-09-26T13:31:32.696Z,2.07
2022-09-26T13:36:25.722Z,1.83
2022-09-26T13:41:34.943Z,2.00
2022-09-26T13:46:34.455Z,2.10
2022-09-26T13:51:39.390Z,2.30
2022-09-26T13:56:44.241Z,2.27
2022-09-26T14:01:38.216Z,2.20
2022-09-26T14:06:31.894Z,2.13
2022-09-26T14:11:27.804Z,2.37
2022-09-26T14:16:36.864Z,2.50
2022-09-26T14:21:37.301Z,2.10
2022-09-26T14:26:41.726Z,2.37
2022-09-26T14:31:38.424Z,2.10
2022-09-26T14:36:32.856Z,2.10
2022-09-26T14:41:28.522Z,1.90
2022-09-26T14:46:24.164Z,2.00
2022-09-26T14:51:25.195Z,2.40
2022-09-26T14:56:19.333Z,2.50
2022-09-26T15:01:17.998Z,2.20
2022-09-26T15:06:12.855Z,2.13
2022-09-26T15:11:06.088Z,2.30
2022-09-26T15:16:02.519Z,2.10
2022-09-26T15:21:04.020Z,2.40
2022-09-26T15:26:00.531Z,2.30
2022-09-26T15:31:12.116Z,2.50
2022-09-26T15:36:06.635Z,2.50
2022-09-26T15:41:04.193Z,2.50
2022-09-26T15:45:58.334Z,2.57
2022-09-26T15:50:52.700Z,2.70
2022-09-26T15:55:50.408Z,2.53
2022-09-26T16:00:45.484Z,2.60
2022-09-26T16:05:37.968Z,2.33
2022-09-26T16:10:33.246Z,2.80
2022-09-26T16:15:29.192Z,2.90
2022-09-26T16:20:26.169Z,2.00
2022-09-26T16:25:22.872Z,2.33
2022-09-26T16:30:30.510Z,2.20
2022-09-26T16:35:29.554Z,2.50
2022-09-26T16:40:22.559Z,2.63
2022-09-26T16:45:15.629Z,2.53
2022-09-26T16:50:17.723Z,2.63
2022-09-26T16:55:11.720Z,2.60
2022-09-26T17:00:23.304Z,3.00
2022-09-26T17:05:18.571Z,2.40
2022-09-26T17:10:12.881Z,3.57
2022-09-26T17:15:06.619Z,2.87
2022-09-26T17:20:00.942Z,3.00
2022-09-26T17:24:53.650Z,3.27
2022-09-26T17:29:49.904Z,3.07
2022-09-26T17:34:43.504Z,2.87
2022-09-26T17:39:36.007Z,3.03
2022-09-26T17:44:28.738Z,3.40
2022-09-26T17:49:27.152Z,2.50
2022-09-26T17:54:20.331Z,2.60
2022-09-26T17:59:19.125Z,4.73
2022-09-26T18:04:17.444Z,2.60
2022-09-26T18:09:15.635Z,2.63
2022-09-26T18:14:09.462Z,2.77
2022-09-26T18:19:06.252Z,2.67
2022-09-26T18:24:02.125Z,2.70
2022-09-26T18:28:56.756Z,2.70
2022-09-26T18:33:49.248Z,3.73
2022-09-26T18:38:41.718Z,2.67
2022-09-26T18:43:40.527Z,3.07
2022-09-26T18:48:37.190Z,3.00
2022-09-26T18:53:34.799Z,18.53
2022-09-26T18:58:28.220Z,3.27
2022-09-26T19:03:21.180Z,3.40
2022-09-26T19:08:25.001Z,3.40
2022-09-26T19:13:17.494Z,2.90
2022-09-26T19:18:10.288Z,3.70
2022-09-26T19:23:02.801Z,4.20
2022-09-26T19:27:56.642Z,4.13
2022-09-26T19:32:50.156Z,4.43
2022-09-26T19:37:42.659Z,4.60
2022-09-26T19:42:35.135Z,5.57
2022-09-26T19:47:29.513Z,4.57
2022-09-26T19:52:22.849Z,4.30
2022-09-26T19:57:16.113Z,4.70
2022-09-26T20:02:12.096Z,4.60
2022-09-26T20:07:06.764Z,3.50
2022-09-26T20:11:59.233Z,3.60
2022-09-26T20:16:52.181Z,3.73
2022-09-26T20:21:44.842Z,3.60
2022-09-26T20:26:40.172Z,3.27
2022-09-26T20:31:32.657Z,3.57
2022-09-26T20:36:26.516Z,2.80
2022-09-26T20:41:22.128Z,2.90
2022-09-26T20:46:16.103Z,2.70
2022-09-26T20:51:12.885Z,2.03
2022-09-26T20:56:06.966Z,2.30
2022-09-26T21:00:59.738Z,2.10
2022-09-26T21:05:53.702Z,1.83
2022-09-26T21:10:46.231Z,2.30
2022-09-26T21:15:41.410Z,2.03
2022-09-26T21:20:34.706Z,2.23
2022-09-26T21:25:51.450Z,1.90
2022-09-26T21:30:44.991Z,1.90
2022-09-26T21:35:38.958Z,1.87
2022-09-26T21:40:33.155Z,1.93
2022-09-26T21:45:27.845Z,2.17
2022-09-26T21:50:20.411Z,2.00
2022-09-26T21:55:15.129Z,2.00
2022-09-26T22:00:09.663Z,2.20
2022-09-26T22:05:07.831Z,2.37
2022-09-26T22:10:00.373Z,2.30
2022-09-26T22:14:52.860Z,2.43
2022-09-26T22:19:45.410Z,2.50
2022-09-26T22:24:39.249Z,2.30
2022-09-26T22:29:32.556Z,2.40
2022-09-26T22:34:25.655Z,2.10
2022-09-26T22:39:18.188Z,2.17
2022-09-26T22:44:12.073Z,2.10
2022-09-26T22:49:04.587Z,2.17
2022-09-26T22:53:57.090Z,2.27
2022-09-26T22:58:50.940Z,2.90
2022-09-26T23:03:44.838Z,2.60
2022-09-26T23:08:37.690Z,2.60
2022-09-26T23:13:31.414Z,2.97
2022-09-26T23:18:23.898Z,2.60
2022-09-26T23:23:17.714Z,3.07
2022-09-26T23:28:10.214Z,3.30
2022-09-26T23:33:02.684Z,2.50
2022-09-26T23:37:56.382Z,2.67
2022-09-26T23:42:50.226Z,2.80
2022-09-26T23:47:42.712Z,2.87
2022-09-26T23:52:35.346Z,2.47
2022-09-26T23:57:27.806Z,2.90
